sensor_id;sensor_type;location;lat;lon;timestamp;temperature;humidity
5508;DHT22;2776;51.046;6.772;2022-10-16T00:02:13;14.20;99.90
5508;DHT22;2776;51.046;6.772;2022-10-16T00:04:42;14.20;99.90
5508;DHT22;2776;51.046;6.772;2022-10-16T00:07:08;14.20;99.90
5508;DHT22;2776;51.046;6.772;2022-10-16T00:09:35;14.20;99.90
5508;DHT22;2776;51.046;6.772;2022-10-16T00:12:02;14.20;99.90
5508;DHT22;2776;51.046;6.772;2022-10-16T00:14:32;14.20;99.90
5508;DHT22;2776;51.046;6.772;2022-10-16T00:16:58;14.20;99.90
5508;DHT22;2776;51.046;6.772;2022-10-16T00:19:25;14.20;99.90
5508;DHT22;2776;51.046;6.772;2022-10-16T00:21:53;14.10;99.90
5508;DHT22;2776;51.046;6.772;2022-10-16T00:24:20;14.10;99.90
5508;DHT22;2776;51.046;6.772;2022-10-16T00:26:50;14.10;99.90
5508;DHT22;2776;51.046;6.772;2022-10-16T00:29:17;14.00;99.90
5508;DHT22;2776;51.046;6.772;2022-10-16T00:31:44;14.00;99.90
5508;DHT22;2776;51.046;6.772;2022-10-16T00:34:10;14.00;99.90
5508;DHT22;2776;51.046;6.772;2022-10-16T00:36:37;14.00;99.90
5508;DHT22;2776;51.046;6.772;2022-10-16T00:39:05;13.90;99.90
5508;DHT22;2776;51.046;6.772;2022-10-16T00:41:32;14.00;99.90
5508;DHT22;2776;51.046;6.772;2022-10-16T00:44:00;14.00;99.90
5508;DHT22;2776;51.046;6.772;2022-10-16T00:46:29;13.90;99.90
5508;DHT22;2776;51.046;6.772;2022-10-16T00:49:01;13.90;99.90
5508;DHT22;2776;51.046;6.772;2022-10-16T00:51:31;13.90;99.90
5508;DHT22;2776;51.046;6.772;2022-10-16T00:53:59;13.80;99.90
5508;DHT22;2776;51.046;6.772;2022-10-16T00:56:27;13.80;99.90
5508;DHT22;2776;51.046;6.772;2022-10-16T00:58:54;13.70;99.90
5508;DHT22;2776;51.046;6.772;2022-10-16T01:01:21;13.60;99.90
5508;DHT22;2776;51.046;6.772;2022-10-16T01:03:48;13.70;99.90
5508;DHT22;2776;51.046;6.772;2022-10-16T01:06:25;13.60;99.90
5508;DHT22;2776;51.046;6.772;2022-10-16T01:09:06;13.70;99.90
5508;DHT22;2776;51.046;6.772;2022-10-16T01:11:44;13.70;99.90
5508;DHT22;2776;51.046;6.772;2022-10-16T01:14:17;13.70;99.90
5508;DHT22;2776;51.046;6.772;2022-10-16T01:16:49;13.70;99.90
5508;DHT22;2776;51.046;6.772;2022-10-16T01:19:30;13.70;99.90
5508;DHT22;2776;51.046;6.772;2022-10-16T01:21:59;13.70;99.90
5508;DHT22;2776;51.046;6.772;2022-10-16T01:24:32;13.80;99.90
5508;DHT22;2776;51.046;6.772;2022-10-16T01:27:12;13.70;99.90
5508;DHT22;2776;51.046;6.772;2022-10-16T01:29:45;13.70;99.90
5508;DHT22;2776;51.046;6.772;2022-10-16T01:32:17;13.70;99.90
5508;DHT22;2776;51.046;6.772;2022-10-16T01:34:49;13.70;99.90
5508;DHT22;2776;51.046;6.772;2022-10-16T01:37:24;13.80;99.90
5508;DHT22;2776;51.046;6.772;2022-10-16T01:39:52;13.90;99.90
5508;DHT22;2776;51.046;6.772;2022-10-16T01:42:25;13.90;99.90
5508;DHT22;2776;51.046;6.772;2022-10-16T01:44:54;14.00;99.90
5508;DHT22;2776;51.046;6.772;2022-10-16T01:47:23;14.00;99.90
5508;DHT22;2776;51.046;6.772;2022-10-16T01:49:52;14.00;99.90
5508;DHT22;2776;51.046;6.772;2022-10-16T01:52:24;14.00;99.90
5508;DHT22;2776;51.046;6.772;2022-10-16T01:54:54;14.00;99.90
5508;DHT22;2776;51.046;6.772;2022-10-16T01:57:24;14.00;99.90
5508;DHT22;2776;51.046;6.772;2022-10-16T01:59:54;14.00;99.90
5508;DHT22;2776;51.046;6.772;2022-10-16T02:02:22;14.00;99.90
5508;DHT22;2776;51.046;6.772;2022-10-16T02:04:57;14.00;99.90
5508;DHT22;2776;51.046;6.772;2022-10-16T02:07:25;14.00;99.90
5508;DHT22;2776;51.046;6.772;2022-10-16T02:09:51;14.00;99.90
5508;DHT22;2776;51.046;6.772;2022-10-16T02:12:23;14.10;99.90
5508;DHT22;2776;51.046;6.772;2022-10-16T02:14:52;14.10;99.90
5508;DHT22;2776;51.046;6.772;2022-10-16T02:17:19;14.10;99.90
5508;DHT22;2776;51.046;6.772;2022-10-16T02:19:48;14.00;99.90
5508;DHT22;2776;51.046;6.772;2022-10-16T02:22:19;14.10;99.90
5508;DHT22;2776;51.046;6.772;2022-10-16T02:24:52;14.10;99.90
5508;DHT22;2776;51.046;6.772;2022-10-16T02:27:24;14.10;99.90
5508;DHT22;2776;51.046;6.772;2022-10-16T02:29:55;14.20;99.90
5508;DHT22;2776;51.046;6.772;2022-10-16T02:32:30;14.20;99.90
5508;DHT22;2776;51.046;6.772;2022-10-16T02:34:58;14.10;99.90
5508;DHT22;2776;51.046;6.772;2022-10-16T02:37:27;14.10;99.90
5508;DHT22;2776;51.046;6.772;2022-10-16T02:39:56;14.10;99.90
5508;DHT22;2776;51.046;6.772;2022-10-16T02:42:29;14.20;99.90
5508;DHT22;2776;51.046;6.772;2022-10-16T02:44:59;14.20;99.90
5508;DHT22;2776;51.046;6.772;2022-10-16T02:47:25;14.20;99.90
5508;DHT22;2776;51.046;6.772;2022-10-16T02:49:52;14.20;99.90
5508;DHT22;2776;51.046;6.772;2022-10-16T02:52:19;14.20;99.90
5508;DHT22;2776;51.046;6.772;2022-10-16T02:54:46;14.20;99.90
5508;DHT22;2776;51.046;6.772;2022-10-16T02:57:13;14.20;99.90
5508;DHT22;2776;51.046;6.772;2022-10-16T02:59:41;14.20;99.90
5508;DHT22;2776;51.046;6.772;2022-10-16T03:02:08;14.20;99.90
5508;DHT22;2776;51.046;6.772;2022-10-16T03:04:34;14.20;99.90
5508;DHT22;2776;51.046;6.772;2022-10-16T03:07:01;14.20;99.90
5508;DHT22;2776;51.046;6.772;2022-10-16T03:09:28;14.10;99.90
5508;DHT22;2776;51.046;6.772;2022-10-16T03:11:54;14.10;99.90
5508;DHT22;2776;51.046;6.772;2022-10-16T03:14:21;14.10;99.90
5508;DHT22;2776;51.046;6.772;2022-10-16T03:16:49;14.10;99.90
5508;DHT22;2776;51.046;6.772;2022-10-16T03:19:16;14.10;99.90
5508;DHT22;2776;51.046;6.772;2022-10-16T03:21:43;14.00;99.90
5508;DHT22;2776;51.046;6.772;2022-10-16T03:24:10;14.00;99.90
5508;DHT22;2776;51.046;6.772;2022-10-16T03:26:37;14.00;99.90
5508;DHT22;2776;51.046;6.772;2022-10-16T03:29:04;14.00;99.90
5508;DHT22;2776;51.046;6.772;2022-10-16T03:31:30;13.90;99.90
5508;DHT22;2776;51.046;6.772;2022-10-16T03:33:59;13.90;99.90
5508;DHT22;2776;51.046;6.772;2022-10-16T03:36:25;13.90;99.90
5508;DHT22;2776;51.046;6.772;2022-10-16T03:38:52;13.90;99.90
5508;DHT22;2776;51.046;6.772;2022-10-16T03:41:19;13.90;99.90
5508;DHT22;2776;51.046;6.772;2022-10-16T03:43:46;13.90;99.90
5508;DHT22;2776;51.046;6.772;2022-10-16T03:46:12;14.00;99.90
5508;DHT22;2776;51.046;6.772;2022-10-16T03:48:39;13.90;99.90
5508;DHT22;2776;51.046;6.772;2022-10-16T03:51:07;13.90;99.90
5508;DHT22;2776;51.046;6.772;2022-10-16T03:53:34;13.90;99.90
5508;DHT22;2776;51.046;6.772;2022-10-16T03:56:01;13.80;99.90
5508;DHT22;2776;51.046;6.772;2022-10-16T03:58:27;13.90;99.90
5508;DHT22;2776;51.046;6.772;2022-10-16T04:00:54;13.90;99.90
5508;DHT22;2776;51.046;6.772;2022-10-16T04:03:21;13.90;99.90
5508;DHT22;2776;51.046;6.772;2022-10-16T04:05:48;13.90;99.90
5508;DHT22;2776;51.046;6.772;2022-10-16T04:08:16;13.90;99.90
5508;DHT22;2776;51.046;6.772;2022-10-16T04:10:43;13.90;99.90
5508;DHT22;2776;51.046;6.772;2022-10-16T04:13:10;13.90;99.90
5508;DHT22;2776;51.046;6.772;2022-10-16T04:15:37;13.90;99.90
5508;DHT22;2776;51.046;6.772;2022-10-16T04:18:05;14.00;99.90
5508;DHT22;2776;51.046;6.772;2022-10-16T04:20:32;14.00;99.90
5508;DHT22;2776;51.046;6.772;2022-10-16T04:22:59;13.90;99.90
5508;DHT22;2776;51.046;6.772;2022-10-16T04:25:27;13.90;99.90
5508;DHT22;2776;51.046;6.772;2022-10-16T04:27:54;14.00;99.90
5508;DHT22;2776;51.046;6.772;2022-10-16T04:30:22;13.90;99.90
5508;DHT22;2776;51.046;6.772;2022-10-16T04:32:49;13.90;99.90
5508;DHT22;2776;51.046;6.772;2022-10-16T04:35:16;13.90;99.90
5508;DHT22;2776;51.046;6.772;2022-10-16T04:37:43;13.90;99.90
5508;DHT22;2776;51.046;6.772;2022-10-16T04:40:10;13.90;99.90
5508;DHT22;2776;51.046;6.772;2022-10-16T04:42:38;13.90;99.90
5508;DHT22;2776;51.046;6.772;2022-10-16T04:45:06;13.90;99.90
5508;DHT22;2776;51.046;6.772;2022-10-16T04:47:33;13.90;99.90
5508;DHT22;2776;51.046;6.772;2022-10-16T04:50:00;13.90;99.90
5508;DHT22;2776;51.046;6.772;2022-10-16T04:52:28;13.90;99.90
5508;DHT22;2776;51.046;6.772;2022-10-16T04:54:56;13.80;99.90
5508;DHT22;2776;51.046;6.772;2022-10-16T04:57:26;13.70;99.90
5508;DHT22;2776;51.046;6.772;2022-10-16T04:59:54;13.70;99.90
5508;DHT22;2776;51.046;6.772;2022-10-16T05:02:21;13.70;99.90
5508;DHT22;2776;51.046;6.772;2022-10-16T05:04:48;13.80;99.90
5508;DHT22;2776;51.046;6.772;2022-10-16T05:07:14;13.80;99.90
5508;DHT22;2776;51.046;6.772;2022-10-16T05:09:41;13.80;99.90
5508;DHT22;2776;51.046;6.772;2022-10-16T05:12:08;13.80;99.90
5508;DHT22;2776;51.046;6.772;2022-10-16T05:14:35;13.70;99.90
5508;DHT22;2776;51.046;6.772;2022-10-16T05:17:03;13.80;99.90
5508;DHT22;2776;51.046;6.772;2022-10-16T05:19:30;13.70;99.90
5508;DHT22;2776;51.046;6.772;2022-10-16T05:21:56;13.70;99.90
5508;DHT22;2776;51.046;6.772;2022-10-16T05:24:23;13.80;99.90
5508;DHT22;2776;51.046;6.772;2022-10-16T05:26:50;13.70;99.90
5508;DHT22;2776;51.046;6.772;2022-10-16T05:29:17;13.70;99.90
5508;DHT22;2776;51.046;6.772;2022-10-16T05:31:44;13.80;99.90
5508;DHT22;2776;51.046;6.772;2022-10-16T05:34:12;13.80;99.90
5508;DHT22;2776;51.046;6.772;2022-10-16T05:36:39;13.70;99.90
5508;DHT22;2776;51.046;6.772;2022-10-16T05:39:06;13.70;99.90
5508;DHT22;2776;51.046;6.772;2022-10-16T05:41:32;13.70;99.90
5508;DHT22;2776;51.046;6.772;2022-10-16T05:43:59;13.70;99.90
5508;DHT22;2776;51.046;6.772;2022-10-16T05:46:26;13.80;99.90
5508;DHT22;2776;51.046;6.772;2022-10-16T05:48:52;13.80;99.90
5508;DHT22;2776;51.046;6.772;2022-10-16T05:51:21;13.80;99.90
5508;DHT22;2776;51.046;6.772;2022-10-16T05:53:47;13.80;99.90
5508;DHT22;2776;51.046;6.772;2022-10-16T05:56:14;13.90;99.90
5508;DHT22;2776;51.046;6.772;2022-10-16T05:58:41;13.90;99.90
5508;DHT22;2776;51.046;6.772;2022-10-16T06:01:11;13.90;99.90
5508;DHT22;2776;51.046;6.772;2022-10-16T06:03:39;13.90;99.90
5508;DHT22;2776;51.046;6.772;2022-10-16T06:06:10;13.90;99.90
5508;DHT22;2776;51.046;6.772;2022-10-16T06:08:39;13.90;99.90
5508;DHT22;2776;51.046;6.772;2022-10-16T06:11:07;13.90;99.90
5508;DHT22;2776;51.046;6.772;2022-10-16T06:13:35;13.80;99.90
5508;DHT22;2776;51.046;6.772;2022-10-16T06:16:03;13.80;99.90
5508;DHT22;2776;51.046;6.772;2022-10-16T06:18:30;13.90;99.90
5508;DHT22;2776;51.046;6.772;2022-10-16T06:20:57;13.90;99.90
5508;DHT22;2776;51.046;6.772;2022-10-16T06:23:25;14.00;99.90
5508;DHT22;2776;51.046;6.772;2022-10-16T06:25:53;13.90;99.90
5508;DHT22;2776;51.046;6.772;2022-10-16T06:28:19;13.90;99.90
5508;DHT22;2776;51.046;6.772;2022-10-16T06:30:46;13.90;99.90
5508;DHT22;2776;51.046;6.772;2022-10-16T06:33:13;14.00;99.90
5508;DHT22;2776;51.046;6.772;2022-10-16T06:35:40;14.00;99.90
5508;DHT22;2776;51.046;6.772;2022-10-16T06:38:06;14.00;99.90
5508;DHT22;2776;51.046;6.772;2022-10-16T06:40:33;14.00;99.90
5508;DHT22;2776;51.046;6.772;2022-10-16T06:43:01;14.00;99.90
5508;DHT22;2776;51.046;6.772;2022-10-16T06:45:28;14.00;99.90
5508;DHT22;2776;51.046;6.772;2022-10-16T06:47:54;14.10;99.90
5508;DHT22;2776;51.046;6.772;2022-10-16T06:50:21;14.10;99.90
5508;DHT22;2776;51.046;6.772;2022-10-16T06:52:49;14.20;99.90
5508;DHT22;2776;51.046;6.772;2022-10-16T06:55:16;14.20;99.90
5508;DHT22;2776;51.046;6.772;2022-10-16T06:57:43;14.30;99.90
5508;DHT22;2776;51.046;6.772;2022-10-16T07:00:12;14.40;99.90
5508;DHT22;2776;51.046;6.772;2022-10-16T07:02:39;14.50;99.90
5508;DHT22;2776;51.046;6.772;2022-10-16T07:05:06;14.60;99.90
5508;DHT22;2776;51.046;6.772;2022-10-16T07:07:33;14.70;99.90
5508;DHT22;2776;51.046;6.772;2022-10-16T07:10:00;14.70;99.90
5508;DHT22;2776;51.046;6.772;2022-10-16T07:12:26;14.80;99.90
5508;DHT22;2776;51.046;6.772;2022-10-16T07:14:53;14.80;99.90
5508;DHT22;2776;51.046;6.772;2022-10-16T07:17:22;14.80;99.90
5508;DHT22;2776;51.046;6.772;2022-10-16T07:19:49;14.90;99.90
5508;DHT22;2776;51.046;6.772;2022-10-16T07:22:18;14.90;99.90
5508;DHT22;2776;51.046;6.772;2022-10-16T07:24:44;14.90;99.90
5508;DHT22;2776;51.046;6.772;2022-10-16T07:27:11;15.00;99.90
5508;DHT22;2776;51.046;6.772;2022-10-16T07:29:38;15.10;99.90
5508;DHT22;2776;51.046;6.772;2022-10-16T07:32:05;15.10;99.90
5508;DHT22;2776;51.046;6.772;2022-10-16T07:34:33;15.20;99.90
5508;DHT22;2776;51.046;6.772;2022-10-16T07:37:00;15.10;99.90
5508;DHT22;2776;51.046;6.772;2022-10-16T07:39:27;15.10;99.90
5508;DHT22;2776;51.046;6.772;2022-10-16T07:41:53;15.20;99.90
5508;DHT22;2776;51.046;6.772;2022-10-16T07:44:20;15.20;99.90
5508;DHT22;2776;51.046;6.772;2022-10-16T07:46:47;15.20;99.90
5508;DHT22;2776;51.046;6.772;2022-10-16T07:49:14;15.20;99.90
5508;DHT22;2776;51.046;6.772;2022-10-16T07:51:42;15.20;99.90
5508;DHT22;2776;51.046;6.772;2022-10-16T07:54:09;15.20;99.90
5508;DHT22;2776;51.046;6.772;2022-10-16T07:56:36;15.20;99.90
5508;DHT22;2776;51.046;6.772;2022-10-16T07:59:03;15.20;99.90
5508;DHT22;2776;51.046;6.772;2022-10-16T08:01:29;15.20;99.90
5508;DHT22;2776;51.046;6.772;2022-10-16T08:03:56;15.30;99.90
5508;DHT22;2776;51.046;6.772;2022-10-16T08:06:23;15.40;99.90
5508;DHT22;2776;51.046;6.772;2022-10-16T08:08:51;15.50;99.90
5508;DHT22;2776;51.046;6.772;2022-10-16T08:11:18;15.60;99.90
5508;DHT22;2776;51.046;6.772;2022-10-16T08:13:44;15.70;99.90
5508;DHT22;2776;51.046;6.772;2022-10-16T08:16:11;15.80;99.90
5508;DHT22;2776;51.046;6.772;2022-10-16T08:18:39;15.90;99.90
5508;DHT22;2776;51.046;6.772;2022-10-16T08:21:11;16.00;99.90
5508;DHT22;2776;51.046;6.772;2022-10-16T08:23:39;16.10;99.90
5508;DHT22;2776;51.046;6.772;2022-10-16T08:26:08;16.20;99.90
5508;DHT22;2776;51.046;6.772;2022-10-16T08:28:35;16.30;99.90
5508;DHT22;2776;51.046;6.772;2022-10-16T08:31:07;16.30;99.90
5508;DHT22;2776;51.046;6.772;2022-10-16T08:33:33;16.40;99.90
5508;DHT22;2776;51.046;6.772;2022-10-16T08:36:02;16.50;99.90
5508;DHT22;2776;51.046;6.772;2022-10-16T08:38:29;16.50;99.90
5508;DHT22;2776;51.046;6.772;2022-10-16T08:41:13;16.60;99.90
5508;DHT22;2776;51.046;6.772;2022-10-16T08:43:55;16.70;99.90
5508;DHT22;2776;51.046;6.772;2022-10-16T08:46:34;16.80;99.90
5508;DHT22;2776;51.046;6.772;2022-10-16T08:49:05;16.90;99.90
5508;DHT22;2776;51.046;6.772;2022-10-16T08:51:36;16.90;99.90
5508;DHT22;2776;51.046;6.772;2022-10-16T08:54:05;17.00;99.90
5508;DHT22;2776;51.046;6.772;2022-10-16T08:56:35;17.10;99.90
5508;DHT22;2776;51.046;6.772;2022-10-16T08:59:04;17.10;99.90
5508;DHT22;2776;51.046;6.772;2022-10-16T09:01:38;17.20;99.90
5508;DHT22;2776;51.046;6.772;2022-10-16T09:04:40;17.20;99.90
5508;DHT22;2776;51.046;6.772;2022-10-16T09:07:15;17.20;99.90
5508;DHT22;2776;51.046;6.772;2022-10-16T09:10:06;17.30;99.90
5508;DHT22;2776;51.046;6.772;2022-10-16T09:12:40;17.30;99.90
5508;DHT22;2776;51.046;6.772;2022-10-16T09:15:17;17.40;99.90
5508;DHT22;2776;51.046;6.772;2022-10-16T09:17:53;17.50;99.90
5508;DHT22;2776;51.046;6.772;2022-10-16T09:20:40;17.60;99.90
5508;DHT22;2776;51.046;6.772;2022-10-16T09:23:14;17.60;99.90
5508;DHT22;2776;51.046;6.772;2022-10-16T09:25:43;17.70;99.90
5508;DHT22;2776;51.046;6.772;2022-10-16T09:28:12;17.80;99.90
5508;DHT22;2776;51.046;6.772;2022-10-16T09:30:39;17.90;99.90
5508;DHT22;2776;51.046;6.772;2022-10-16T09:33:06;18.00;99.90
5508;DHT22;2776;51.046;6.772;2022-10-16T09:35:37;18.00;99.90
5508;DHT22;2776;51.046;6.772;2022-10-16T09:38:04;18.10;99.90
5508;DHT22;2776;51.046;6.772;2022-10-16T09:40:33;18.10;99.90
5508;DHT22;2776;51.046;6.772;2022-10-16T09:43:06;18.20;99.90
5508;DHT22;2776;51.046;6.772;2022-10-16T09:45:40;18.20;99.90
5508;DHT22;2776;51.046;6.772;2022-10-16T09:48:11;18.30;99.90
5508;DHT22;2776;51.046;6.772;2022-10-16T09:50:38;18.30;99.90
5508;DHT22;2776;51.046;6.772;2022-10-16T09:53:08;18.40;99.90
5508;DHT22;2776;51.046;6.772;2022-10-16T09:55:47;18.50;99.90
5508;DHT22;2776;51.046;6.772;2022-10-16T09:58:14;18.60;99.90
5508;DHT22;2776;51.046;6.772;2022-10-16T10:00:49;18.60;99.90
5508;DHT22;2776;51.046;6.772;2022-10-16T10:03:33;18.60;99.90
5508;DHT22;2776;51.046;6.772;2022-10-16T10:06:05;18.70;99.90
5508;DHT22;2776;51.046;6.772;2022-10-16T10:08:33;18.80;99.90
5508;DHT22;2776;51.046;6.772;2022-10-16T10:10:59;18.80;99.90
5508;DHT22;2776;51.046;6.772;2022-10-16T10:13:26;18.90;99.90
5508;DHT22;2776;51.046;6.772;2022-10-16T10:15:54;19.00;99.90
5508;DHT22;2776;51.046;6.772;2022-10-16T10:18:22;19.00;99.90
5508;DHT22;2776;51.046;6.772;2022-10-16T10:20:57;19.00;99.90
5508;DHT22;2776;51.046;6.772;2022-10-16T10:23:26;19.10;99.90
5508;DHT22;2776;51.046;6.772;2022-10-16T10:25:56;19.20;99.90
5508;DHT22;2776;51.046;6.772;2022-10-16T10:28:34;19.30;99.90
5508;DHT22;2776;51.046;6.772;2022-10-16T10:31:12;19.50;99.90
5508;DHT22;2776;51.046;6.772;2022-10-16T10:33:43;19.70;99.90
5508;DHT22;2776;51.046;6.772;2022-10-16T10:36:28;19.80;99.90
5508;DHT22;2776;51.046;6.772;2022-10-16T10:38:58;19.70;99.90
5508;DHT22;2776;51.046;6.772;2022-10-16T10:41:59;19.60;99.90
5508;DHT22;2776;51.046;6.772;2022-10-16T10:44:38;19.60;99.90
5508;DHT22;2776;51.046;6.772;2022-10-16T10:47:18;19.50;99.90
5508;DHT22;2776;51.046;6.772;2022-10-16T10:49:54;19.50;99.90
5508;DHT22;2776;51.046;6.772;2022-10-16T10:52:34;19.50;99.90
5508;DHT22;2776;51.046;6.772;2022-10-16T10:55:13;19.50;99.90
5508;DHT22;2776;51.046;6.772;2022-10-16T10:57:52;19.40;99.90
5508;DHT22;2776;51.046;6.772;2022-10-16T11:00:25;19.50;99.90
5508;DHT22;2776;51.046;6.772;2022-10-16T11:03:03;19.50;99.90
5508;DHT22;2776;51.046;6.772;2022-10-16T11:05:44;19.50;99.90
5508;DHT22;2776;51.046;6.772;2022-10-16T11:08:16;19.40;99.90
5508;DHT22;2776;51.046;6.772;2022-10-16T11:10:48;19.40;99.90
5508;DHT22;2776;51.046;6.772;2022-10-16T11:13:30;19.40;99.90
5508;DHT22;2776;51.046;6.772;2022-10-16T11:16:02;19.50;99.90
5508;DHT22;2776;51.046;6.772;2022-10-16T11:18:39;19.60;99.90
5508;DHT22;2776;51.046;6.772;2022-10-16T11:21:11;19.80;99.90
5508;DHT22;2776;51.046;6.772;2022-10-16T11:23:42;19.80;99.90
5508;DHT22;2776;51.046;6.772;2022-10-16T11:26:18;19.80;99.90
5508;DHT22;2776;51.046;6.772;2022-10-16T11:28:47;19.90;99.90
5508;DHT22;2776;51.046;6.772;2022-10-16T11:31:19;20.00;99.90
5508;DHT22;2776;51.046;6.772;2022-10-16T11:33:54;20.00;99.90
5508;DHT22;2776;51.046;6.772;2022-10-16T11:36:27;19.90;99.90
5508;DHT22;2776;51.046;6.772;2022-10-16T11:39:02;20.00;99.90
5508;DHT22;2776;51.046;6.772;2022-10-16T11:41:35;20.10;99.90
5508;DHT22;2776;51.046;6.772;2022-10-16T11:44:20;20.00;99.90
5508;DHT22;2776;51.046;6.772;2022-10-16T11:46:58;20.00;99.90
5508;DHT22;2776;51.046;6.772;2022-10-16T11:49:31;20.00;99.90
5508;DHT22;2776;51.046;6.772;2022-10-16T11:52:05;20.00;99.90
5508;DHT22;2776;51.046;6.772;2022-10-16T11:54:39;20.00;99.90
5508;DHT22;2776;51.046;6.772;2022-10-16T11:57:11;20.00;99.90
5508;DHT22;2776;51.046;6.772;2022-10-16T11:59:43;20.10;99.90
5508;DHT22;2776;51.046;6.772;2022-10-16T12:05:19;20.30;99.90
5508;DHT22;2776;51.046;6.772;2022-10-16T12:07:51;20.40;99.90
5508;DHT22;2776;51.046;6.772;2022-10-16T12:10:22;20.30;99.90
5508;DHT22;2776;51.046;6.772;2022-10-16T12:12:49;20.30;99.90
5508;DHT22;2776;51.046;6.772;2022-10-16T12:15:22;20.30;99.90
5508;DHT22;2776;51.046;6.772;2022-10-16T12:17:50;20.30;99.90
5508;DHT22;2776;51.046;6.772;2022-10-16T12:20:25;20.20;99.90
5508;DHT22;2776;51.046;6.772;2022-10-16T12:22:54;20.20;99.90
5508;DHT22;2776;51.046;6.772;2022-10-16T12:25:24;20.30;99.90
5508;DHT22;2776;51.046;6.772;2022-10-16T12:27:55;20.50;99.90
5508;DHT22;2776;51.046;6.772;2022-10-16T12:30:24;20.40;99.90
5508;DHT22;2776;51.046;6.772;2022-10-16T12:32:56;20.40;99.90
5508;DHT22;2776;51.046;6.772;2022-10-16T12:35:26;20.40;99.90
5508;DHT22;2776;51.046;6.772;2022-10-16T12:37:54;20.40;99.90
5508;DHT22;2776;51.046;6.772;2022-10-16T12:40:32;20.50;99.90
5508;DHT22;2776;51.046;6.772;2022-10-16T12:43:11;20.50;99.90
5508;DHT22;2776;51.046;6.772;2022-10-16T12:45:38;20.50;99.90
5508;DHT22;2776;51.046;6.772;2022-10-16T12:48:20;20.50;99.90
5508;DHT22;2776;51.046;6.772;2022-10-16T12:50:48;20.60;99.90
5508;DHT22;2776;51.046;6.772;2022-10-16T12:53:19;20.80;99.90
5508;DHT22;2776;51.046;6.772;2022-10-16T12:55:55;21.00;99.90
5508;DHT22;2776;51.046;6.772;2022-10-16T12:58:38;21.30;99.90
5508;DHT22;2776;51.046;6.772;2022-10-16T13:01:13;21.40;99.90
5508;DHT22;2776;51.046;6.772;2022-10-16T13:04:00;21.70;99.90
5508;DHT22;2776;51.046;6.772;2022-10-16T13:06:37;21.80;99.90
5508;DHT22;2776;51.046;6.772;2022-10-16T13:09:17;21.80;99.90
5508;DHT22;2776;51.046;6.772;2022-10-16T13:12:06;22.00;99.90
5508;DHT22;2776;51.046;6.772;2022-10-16T13:14:53;21.90;99.90
5508;DHT22;2776;51.046;6.772;2022-10-16T13:17:31;21.90;99.90
5508;DHT22;2776;51.046;6.772;2022-10-16T13:20:06;21.90;99.90
5508;DHT22;2776;51.046;6.772;2022-10-16T13:22:44;21.90;99.90
5508;DHT22;2776;51.046;6.772;2022-10-16T13:25:22;21.80;99.90
5508;DHT22;2776;51.046;6.772;2022-10-16T13:27:54;21.50;99.90
5508;DHT22;2776;51.046;6.772;2022-10-16T13:30:23;21.30;99.90
5508;DHT22;2776;51.046;6.772;2022-10-16T13:32:56;21.30;99.90
5508;DHT22;2776;51.046;6.772;2022-10-16T13:35:26;21.20;99.90
5508;DHT22;2776;51.046;6.772;2022-10-16T13:38:05;21.20;99.90
5508;DHT22;2776;51.046;6.772;2022-10-16T13:40:32;21.20;99.90
5508;DHT22;2776;51.046;6.772;2022-10-16T13:43:00;21.10;99.90
5508;DHT22;2776;51.046;6.772;2022-10-16T13:45:27;21.10;99.90
5508;DHT22;2776;51.046;6.772;2022-10-16T13:48:02;21.00;99.90
5508;DHT22;2776;51.046;6.772;2022-10-16T13:50:29;20.90;99.90
5508;DHT22;2776;51.046;6.772;2022-10-16T13:53:05;21.00;99.90
5508;DHT22;2776;51.046;6.772;2022-10-16T13:55:32;20.80;99.90
5508;DHT22;2776;51.046;6.772;2022-10-16T13:58:05;20.60;99.90
5508;DHT22;2776;51.046;6.772;2022-10-16T14:00:33;20.60;99.90
5508;DHT22;2776;51.046;6.772;2022-10-16T14:03:03;20.60;99.90
5508;DHT22;2776;51.046;6.772;2022-10-16T14:05:30;20.60;99.90
5508;DHT22;2776;51.046;6.772;2022-10-16T14:07:58;20.60;99.90
5508;DHT22;2776;51.046;6.772;2022-10-16T14:10:28;20.70;99.90
5508;DHT22;2776;51.046;6.772;2022-10-16T14:12:58;20.70;99.90
5508;DHT22;2776;51.046;6.772;2022-10-16T14:15:25;20.80;99.90
5508;DHT22;2776;51.046;6.772;2022-10-16T14:17:53;20.90;99.90
5508;DHT22;2776;51.046;6.772;2022-10-16T14:20:24;20.90;99.90
5508;DHT22;2776;51.046;6.772;2022-10-16T14:22:59;20.90;99.90
5508;DHT22;2776;51.046;6.772;2022-10-16T14:25:30;21.00;99.90
5508;DHT22;2776;51.046;6.772;2022-10-16T14:28:00;21.10;99.90
5508;DHT22;2776;51.046;6.772;2022-10-16T14:30:28;21.10;99.90
5508;DHT22;2776;51.046;6.772;2022-10-16T14:32:57;21.00;99.90
5508;DHT22;2776;51.046;6.772;2022-10-16T14:35:27;21.00;99.90
5508;DHT22;2776;51.046;6.772;2022-10-16T14:37:55;20.90;99.90
5508;DHT22;2776;51.046;6.772;2022-10-16T14:40:24;20.90;99.90
5508;DHT22;2776;51.046;6.772;2022-10-16T14:42:53;20.80;99.90
5508;DHT22;2776;51.046;6.772;2022-10-16T14:45:21;20.80;99.90
5508;DHT22;2776;51.046;6.772;2022-10-16T14:47:52;20.80;99.90
5508;DHT22;2776;51.046;6.772;2022-10-16T14:50:19;20.80;99.90
5508;DHT22;2776;51.046;6.772;2022-10-16T14:52:46;20.80;99.90
5508;DHT22;2776;51.046;6.772;2022-10-16T14:55:13;20.80;99.90
5508;DHT22;2776;51.046;6.772;2022-10-16T14:57:39;20.90;99.90
5508;DHT22;2776;51.046;6.772;2022-10-16T15:00:15;20.90;99.90
5508;DHT22;2776;51.046;6.772;2022-10-16T15:02:42;21.00;99.90
5508;DHT22;2776;51.046;6.772;2022-10-16T15:05:16;21.00;99.90
5508;DHT22;2776;51.046;6.772;2022-10-16T15:07:43;21.00;99.90
5508;DHT22;2776;51.046;6.772;2022-10-16T15:10:11;21.00;99.90
5508;DHT22;2776;51.046;6.772;2022-10-16T15:12:38;21.00;99.90
5508;DHT22;2776;51.046;6.772;2022-10-16T15:15:33;20.90;99.90
5508;DHT22;2776;51.046;6.772;2022-10-16T15:18:01;20.80;99.90
5508;DHT22;2776;51.046;6.772;2022-10-16T15:20:30;20.80;99.90
5508;DHT22;2776;51.046;6.772;2022-10-16T15:22:59;20.80;99.90
5508;DHT22;2776;51.046;6.772;2022-10-16T15:25:36;20.80;99.90
5508;DHT22;2776;51.046;6.772;2022-10-16T15:28:05;20.70;99.90
5508;DHT22;2776;51.046;6.772;2022-10-16T15:30:34;20.70;99.90
5508;DHT22;2776;51.046;6.772;2022-10-16T15:33:01;20.60;99.90
5508;DHT22;2776;51.046;6.772;2022-10-16T15:35:29;20.70;99.90
5508;DHT22;2776;51.046;6.772;2022-10-16T15:37:56;20.60;99.90
5508;DHT22;2776;51.046;6.772;2022-10-16T15:40:23;20.60;99.90
5508;DHT22;2776;51.046;6.772;2022-10-16T15:42:50;20.50;99.90
5508;DHT22;2776;51.046;6.772;2022-10-16T15:45:16;20.50;99.90
5508;DHT22;2776;51.046;6.772;2022-10-16T15:47:46;20.40;99.90
5508;DHT22;2776;51.046;6.772;2022-10-16T15:50:14;20.30;99.90
5508;DHT22;2776;51.046;6.772;2022-10-16T15:52:42;20.20;99.90
5508;DHT22;2776;51.046;6.772;2022-10-16T15:55:10;20.20;99.90
5508;DHT22;2776;51.046;6.772;2022-10-16T15:57:37;20.10;99.90
5508;DHT22;2776;51.046;6.772;2022-10-16T16:00:08;19.90;99.90
5508;DHT22;2776;51.046;6.772;2022-10-16T16:02:35;19.80;99.90
5508;DHT22;2776;51.046;6.772;2022-10-16T16:05:03;19.70;99.90
5508;DHT22;2776;51.046;6.772;2022-10-16T16:07:32;19.60;99.90
5508;DHT22;2776;51.046;6.772;2022-10-16T16:09:59;19.50;99.90
5508;DHT22;2776;51.046;6.772;2022-10-16T16:12:26;19.40;99.90
5508;DHT22;2776;51.046;6.772;2022-10-16T16:14:53;19.40;99.90
5508;DHT22;2776;51.046;6.772;2022-10-16T16:17:19;19.40;99.90
5508;DHT22;2776;51.046;6.772;2022-10-16T16:19:46;19.40;99.90
5508;DHT22;2776;51.046;6.772;2022-10-16T16:22:14;19.40;99.90
5508;DHT22;2776;51.046;6.772;2022-10-16T16:24:41;19.40;99.90